Ingham Composite, Australia
Current Conditions -  °F | °C
As of 4:00 PM on Thursday 23 Oct 2014 (Local Time) from YBTL Reporting Station
Few Clouds Few Clouds  
Wind Chill: 79°   Ceiling: Unl
Heat Index: 80°   Visibility: 6mi
Dew Point: 61°   Wind: 22mph
Humidity: 54%   Direction: 70°ENE
Pressure: 29.97"   Gusts: NA
Location:  18.63°S, 146.17°E
Report Text: YBTL 230600Z 07019KT 9999 FEW045 26/16 Q1015
Loading
Personal Weather Stations






























Interactive Weather Map
Tropical Storm Tracking
New forecast layout! Learn more

10-Day Weather Forecast

Advertisements
Track Severe Weather on mobile